createdAt,value
2018-03-08T01:03:05.446Z,5.61
2018-03-08T01:04:06.582Z,5.60
2018-03-08T01:05:04.096Z,5.54
2018-03-08T01:06:03.533Z,5.54
2018-03-08T01:07:04.382Z,5.51
2018-03-08T01:08:04.094Z,5.51
2018-03-08T01:09:03.621Z,5.54
2018-03-08T01:10:03.583Z,5.51
2018-03-08T01:11:03.658Z,5.48
2018-03-08T01:12:03.715Z,5.51
2018-03-08T01:13:19.998Z,5.53
2018-03-08T01:14:14.568Z,5.46
2018-03-08T01:15:03.353Z,5.53
2018-03-08T01:16:03.550Z,5.51
2018-03-08T01:17:03.460Z,5.51
2018-03-08T01:18:03.302Z,5.51
2018-03-08T01:19:03.331Z,5.58
2018-03-08T01:20:03.268Z,5.57
2018-03-08T01:21:03.370Z,5.57
2018-03-08T01:22:03.224Z,5.60
2018-03-08T01:23:03.216Z,5.53
2018-03-08T01:24:03.293Z,5.57
2018-03-08T01:25:05.074Z,5.56
2018-03-08T01:26:03.176Z,5.56
2018-03-08T01:27:03.144Z,5.54
2018-03-08T01:28:03.135Z,5.53
2018-03-08T01:29:03.111Z,5.51
2018-03-08T01:30:03.145Z,5.53
2018-03-08T01:31:03.070Z,5.49
2018-03-08T01:32:03.076Z,5.49
2018-03-08T01:33:03.057Z,5.54
2018-03-08T01:34:03.031Z,5.51
2018-03-08T01:35:03.015Z,5.45
2018-03-08T01:36:03.061Z,5.45
2018-03-08T01:37:02.988Z,5.43
2018-03-08T01:38:02.972Z,5.35
2018-03-08T01:39:02.952Z,5.40
2018-03-08T01:40:02.995Z,5.39
2018-03-08T01:41:02.931Z,5.42
2018-03-08T01:42:02.900Z,5.35
2018-03-08T01:43:02.889Z,5.38
2018-03-08T01:44:02.912Z,5.30
2018-03-08T01:45:02.856Z,5.35
2018-03-08T01:46:02.898Z,5.27
2018-03-08T01:47:02.865Z,5.17
2018-03-08T01:48:02.797Z,5.22
2018-03-08T01:49:02.792Z,5.18
2018-03-08T01:50:02.767Z,5.15
2018-03-08T01:51:02.744Z,5.20
2018-03-08T01:52:02.806Z,5.20
2018-03-08T01:53:02.719Z,5.15
2018-03-08T01:54:02.700Z,5.15
2018-03-08T01:55:02.697Z,5.00
2018-03-08T01:56:02.684Z,5.03
2018-03-08T01:57:02.644Z,5.02
2018-03-08T01:58:02.656Z,4.92
2018-03-08T01:59:02.642Z,4.85
2018-03-08T02:00:02.605Z,4.85
2018-03-08T02:01:02.588Z,4.77
2018-03-08T02:02:02.556Z,4.75
2018-03-08T02:03:02.584Z,4.75
2018-03-08T02:04:04.327Z,4.54
2018-03-08T02:05:02.513Z,4.58
2018-03-08T02:06:02.502Z,4.52
2018-03-08T02:07:02.484Z,4.54
2018-03-08T02:08:18.271Z,4.52
2018-03-08T02:09:02.543Z,4.45
2018-03-08T02:10:02.500Z,4.55
2018-03-08T02:11:02.759Z,4.45
2018-03-08T02:12:02.443Z,4.47
2018-03-08T02:13:02.377Z,4.42
2018-03-08T02:14:02.419Z,4.51
2018-03-08T02:15:02.347Z,4.48
2018-03-08T02:16:02.330Z,4.50
2018-03-08T02:17:02.316Z,4.37
2018-03-08T02:18:03.075Z,4.37
2018-03-08T02:19:02.285Z,4.37
2018-03-08T02:20:02.272Z,4.37
2018-03-08T02:21:02.249Z,4.41
2018-03-08T02:22:02.242Z,4.41
2018-03-08T02:23:02.215Z,4.34
2018-03-08T02:24:02.235Z,4.37
2018-03-08T02:25:02.347Z,4.29
2018-03-08T02:26:02.162Z,4.23
2018-03-08T02:27:02.147Z,4.27
2018-03-08T02:28:02.131Z,4.16
2018-03-08T02:29:02.135Z,4.16
2018-03-08T02:30:02.096Z,4.14
2018-03-08T02:31:02.124Z,4.06
2018-03-08T02:32:02.042Z,4.06
2018-03-08T02:33:02.039Z,4.20
2018-03-08T02:34:02.032Z,4.22
2018-03-08T02:35:02.004Z,4.15
2018-03-08T02:36:03.606Z,4.12
2018-03-08T02:37:01.960Z,4.09
2018-03-08T02:38:01.947Z,4.12
2018-03-08T02:39:01.972Z,4.11
2018-03-08T02:40:01.970Z,4.12
2018-03-08T02:41:01.940Z,4.11
2018-03-08T02:42:03.571Z,4.16
2018-03-08T02:43:02.025Z,4.09
2018-03-08T02:44:01.848Z,4.11
2018-03-08T02:45:01.836Z,4.00
2018-03-08T02:46:02.584Z,4.05
2018-03-08T02:47:02.896Z,3.87
2018-03-08T02:48:01.778Z,3.79
2018-03-08T02:49:01.848Z,3.76
2018-03-08T02:50:01.766Z,3.66
2018-03-08T02:51:01.725Z,3.65
2018-03-08T02:52:02.078Z,3.65
2018-03-08T02:53:01.699Z,3.61
2018-03-08T02:54:01.687Z,3.69
2018-03-08T02:55:01.656Z,3.51
2018-03-08T02:56:02.590Z,3.55
2018-03-08T02:57:01.650Z,3.52
2018-03-08T02:58:01.607Z,3.50
2018-03-08T02:59:01.640Z,3.55
2018-03-08T03:00:04.078Z,3.54
2018-03-08T03:01:01.578Z,3.54
2018-03-08T03:02:01.522Z,3.54
2018-03-08T03:03:01.531Z,3.65
2018-03-08T03:04:01.612Z,3.58
2018-03-08T03:05:01.547Z,3.55
2018-03-08T03:06:01.459Z,3.65
2018-03-08T03:07:01.503Z,3.55
2018-03-08T03:08:01.431Z,3.68
2018-03-08T03:09:01.402Z,3.65
2018-03-08T03:10:01.390Z,3.66
2018-03-08T03:11:01.403Z,3.70
2018-03-08T03:12:01.352Z,3.70
2018-03-08T03:13:01.335Z,3.79
2018-03-08T03:14:01.406Z,3.78
2018-03-08T03:15:01.304Z,3.80
2018-03-08T03:16:03.102Z,3.80
2018-03-08T03:17:01.269Z,3.80
2018-03-08T03:18:01.233Z,3.83
2018-03-08T03:19:01.232Z,3.93
2018-03-08T03:20:01.205Z,3.90
2018-03-08T03:21:01.197Z,3.90
2018-03-08T03:22:01.227Z,3.87
2018-03-08T03:23:01.160Z,3.97
2018-03-08T03:24:01.134Z,4.02
2018-03-08T03:25:01.188Z,4.00
2018-03-08T03:26:01.096Z,4.05
2018-03-08T03:27:01.094Z,4.06
2018-03-08T03:28:01.124Z,4.09
2018-03-08T03:29:01.051Z,4.06
2018-03-08T03:30:01.030Z,4.08
2018-03-08T03:31:01.038Z,4.09
2018-03-08T03:32:01.716Z,4.24
2018-03-08T03:33:01.030Z,4.14
2018-03-08T03:34:00.954Z,4.15
2018-03-08T03:35:00.974Z,4.24
2018-03-08T03:36:00.915Z,4.20
2018-03-08T03:37:00.895Z,4.29
2018-03-08T03:38:01.327Z,4.29
2018-03-08T03:39:00.873Z,4.29
2018-03-08T03:40:00.885Z,4.27
2018-03-08T03:41:00.842Z,4.27
2018-03-08T03:42:00.819Z,4.36
2018-03-08T03:43:00.812Z,4.36
2018-03-08T03:44:00.782Z,4.36
2018-03-08T03:45:00.766Z,4.30
2018-03-08T03:46:00.751Z,4.32
2018-03-08T03:47:00.738Z,4.36
2018-03-08T03:48:00.708Z,4.36
2018-03-08T03:49:00.690Z,4.41
2018-03-08T03:50:00.680Z,4.44
2018-03-08T03:51:00.678Z,4.41
2018-03-08T03:52:00.654Z,4.34
2018-03-08T03:53:00.623Z,4.34
2018-03-08T03:54:00.616Z,4.41
2018-03-08T03:55:00.612Z,4.42
2018-03-08T03:56:00.579Z,4.37
2018-03-08T03:57:00.570Z,4.37
2018-03-08T03:58:00.557Z,4.32
2018-03-08T03:59:00.509Z,4.36
2018-03-08T04:00:00.531Z,4.34
2018-03-08T04:01:00.488Z,4.44
2018-03-08T04:02:00.510Z,4.34
2018-03-08T04:03:00.445Z,4.44
2018-03-08T04:04:00.422Z,4.36
2018-03-08T04:05:00.416Z,4.36
2018-03-08T04:06:00.384Z,4.32
2018-03-08T04:07:00.381Z,4.37
2018-03-08T04:08:00.395Z,4.33
2018-03-08T04:09:00.486Z,4.30
2018-03-08T04:10:00.331Z,4.36
2018-03-08T04:11:00.309Z,4.33
2018-03-08T04:12:00.331Z,4.30
2018-03-08T04:13:00.269Z,4.33
2018-03-08T04:14:00.260Z,4.34
2018-03-08T04:15:00.236Z,4.44
2018-03-08T04:16:00.229Z,4.29
2018-03-08T04:17:00.249Z,4.36
2018-03-08T04:18:00.190Z,4.36
2018-03-08T04:19:00.153Z,4.27
2018-03-08T04:20:00.153Z,4.40
2018-03-08T04:21:00.173Z,4.36
2018-03-08T04:22:00.115Z,4.26
2018-03-08T04:23:00.162Z,4.34
2018-03-08T04:24:00.090Z,4.37
2018-03-08T04:25:00.074Z,4.33
2018-03-08T04:26:00.051Z,4.36
2018-03-08T04:27:00.129Z,4.33
2018-03-08T04:28:00.001Z,4.37
2018-03-08T04:29:00.007Z,4.34
2018-03-08T04:29:59.988Z,4.36
2018-03-08T04:31:00.187Z,4.37
2018-03-08T04:32:00.034Z,4.41
2018-03-08T04:32:59.936Z,4.41
2018-03-08T04:33:59.910Z,4.41
2018-03-08T04:34:59.898Z,4.36
2018-03-08T04:35:59.866Z,4.33
2018-03-08T04:36:59.853Z,4.36
2018-03-08T04:37:59.890Z,4.40
2018-03-08T04:38:59.822Z,4.42
2018-03-08T04:39:59.806Z,4.34
2018-03-08T04:40:59.785Z,4.40
2018-03-08T04:41:59.761Z,4.41
2018-03-08T04:42:59.760Z,4.45
2018-03-08T04:43:59.766Z,4.34
2018-03-08T04:44:59.722Z,4.44
2018-03-08T04:45:59.706Z,4.37
2018-03-08T04:46:59.680Z,4.36
2018-03-08T04:47:59.663Z,4.44
2018-03-08T04:48:59.706Z,4.42
2018-03-08T04:49:59.636Z,4.40
2018-03-08T04:50:59.607Z,4.50
2018-03-08T04:51:59.611Z,4.45
2018-03-08T04:52:59.582Z,4.54
2018-03-08T04:53:59.563Z,4.41
2018-03-08T04:54:59.615Z,4.37
2018-03-08T04:55:59.524Z,4.42
2018-03-08T04:56:59.512Z,4.48
2018-03-08T04:57:59.488Z,4.48
2018-03-08T04:58:59.484Z,4.41
2018-03-08T04:59:59.466Z,4.44
2018-03-08T05:00:59.507Z,4.44
2018-03-08T05:01:59.419Z,4.42
2018-03-08T05:02:59.407Z,4.48
2018-03-08T05:03:59.389Z,4.41
2018-03-08T05:04:59.373Z,4.45
2018-03-08T05:05:59.361Z,4.44
2018-03-08T05:06:59.409Z,4.51
2018-03-08T05:07:59.319Z,4.50
2018-03-08T05:08:59.294Z,4.50
2018-03-08T05:09:59.282Z,4.50
2018-03-08T05:10:59.267Z,4.44
2018-03-08T05:11:59.249Z,4.47
2018-03-08T05:12:59.240Z,4.48
2018-03-08T05:13:59.222Z,4.47
2018-03-08T05:14:59.198Z,4.54
2018-03-08T05:15:59.192Z,4.51
2018-03-08T05:16:59.176Z,4.51
2018-03-08T05:17:59.159Z,4.51
2018-03-08T05:18:59.141Z,4.51
2018-03-08T05:19:59.114Z,4.47
2018-03-08T05:20:59.108Z,4.55
2018-03-08T05:21:59.133Z,4.54
2018-03-08T05:22:59.109Z,4.55
2018-03-08T05:23:59.043Z,4.58
2018-03-08T05:24:59.034Z,4.52
2018-03-08T05:25:59.018Z,4.58
2018-03-08T05:26:58.997Z,4.60
2018-03-08T05:27:58.986Z,4.54
2018-03-08T05:28:58.969Z,4.52
2018-03-08T05:29:58.997Z,4.59
2018-03-08T05:30:58.923Z,4.58
2018-03-08T05:31:58.910Z,4.65
2018-03-08T05:32:58.894Z,4.60
2018-03-08T05:33:58.874Z,4.54
2018-03-08T05:34:58.855Z,4.55
2018-03-08T05:35:58.855Z,4.63
2018-03-08T05:36:58.825Z,4.67
2018-03-08T05:37:58.810Z,4.60
2018-03-08T05:38:58.794Z,4.63
2018-03-08T05:39:58.772Z,4.54
2018-03-08T05:40:58.795Z,4.52
2018-03-08T05:41:58.811Z,4.59
2018-03-08T05:42:58.727Z,4.52
2018-03-08T05:43:58.712Z,4.52
2018-03-08T05:44:58.683Z,4.59
2018-03-08T05:45:58.658Z,4.59
2018-03-08T05:46:58.656Z,4.60
2018-03-08T05:47:58.643Z,4.55
2018-03-08T05:48:58.617Z,4.51
2018-03-08T05:49:58.608Z,4.58
2018-03-08T05:50:58.597Z,4.59
2018-03-08T05:51:58.568Z,4.63
2018-03-08T05:52:58.601Z,4.51
2018-03-08T05:53:58.533Z,4.60
2018-03-08T05:54:58.520Z,4.52
2018-03-08T05:55:58.507Z,4.59
2018-03-08T05:56:58.483Z,4.62
2018-03-08T05:57:58.460Z,4.59
2018-03-08T05:58:58.443Z,4.59
2018-03-08T05:59:58.424Z,4.55
2018-03-08T06:00:58.418Z,4.63
2018-03-08T06:01:58.402Z,4.54
2018-03-08T06:02:58.439Z,4.58
2018-03-08T06:03:58.361Z,4.63
2018-03-08T06:04:58.348Z,4.55
2018-03-08T06:05:58.335Z,4.66
2018-03-08T06:06:58.308Z,4.54
2018-03-08T06:07:58.291Z,4.51
2018-03-08T06:08:58.313Z,4.66
2018-03-08T06:09:58.266Z,4.58
2018-03-08T06:10:58.246Z,4.60
2018-03-08T06:11:58.236Z,4.55
2018-03-08T06:12:58.205Z,4.48
2018-03-08T06:13:58.252Z,4.51
2018-03-08T06:14:58.169Z,4.60
2018-03-08T06:15:58.164Z,4.47
2018-03-08T06:16:58.131Z,4.51
2018-03-08T06:17:58.115Z,4.54
2018-03-08T06:18:58.097Z,4.52
2018-03-08T06:19:58.095Z,4.52
2018-03-08T06:20:58.072Z,4.65
2018-03-08T06:21:58.061Z,4.54
2018-03-08T06:22:58.030Z,4.51
2018-03-08T06:23:58.018Z,4.58
2018-03-08T06:24:58.049Z,4.54
2018-03-08T06:25:57.984Z,4.51
2018-03-08T06:26:57.973Z,4.51
2018-03-08T06:27:57.958Z,4.58
2018-03-08T06:28:57.928Z,4.59
2018-03-08T06:29:57.979Z,4.58
2018-03-08T06:30:57.897Z,4.59
2018-03-08T06:31:57.885Z,4.54
2018-03-08T06:32:57.868Z,4.59
2018-03-08T06:33:57.846Z,4.63
2018-03-08T06:34:57.847Z,4.52
2018-03-08T06:35:57.872Z,4.58
2018-03-08T06:36:57.798Z,4.59
2018-03-08T06:37:57.782Z,4.60
2018-03-08T06:38:57.775Z,4.62
2018-03-08T06:39:57.741Z,4.60
2018-03-08T06:40:57.733Z,4.55
2018-03-08T06:41:57.730Z,4.60
2018-03-08T06:42:57.697Z,4.59
2018-03-08T06:43:57.680Z,4.55
2018-03-08T06:44:57.658Z,4.55
2018-03-08T06:45:57.653Z,4.52
2018-03-08T06:46:57.667Z,4.47
2018-03-08T06:47:57.606Z,4.58
2018-03-08T06:48:57.598Z,4.54
2018-03-08T06:49:57.578Z,4.52
2018-03-08T06:50:57.570Z,4.54
2018-03-08T06:51:57.574Z,4.58
2018-03-08T06:52:57.568Z,4.58
2018-03-08T06:53:57.506Z,4.52
2018-03-08T06:54:57.534Z,4.59
2018-03-08T06:55:57.479Z,4.51
2018-03-08T06:56:57.461Z,4.60
2018-03-08T06:57:57.437Z,4.58
2018-03-08T06:58:57.421Z,4.54
2018-03-08T06:59:57.462Z,4.63
2018-03-08T07:00:57.395Z,4.66
2018-03-08T07:01:57.380Z,4.65
2018-03-08T07:02:57.353Z,4.54
2018-03-08T07:03:57.328Z,4.70
2018-03-08T07:04:57.321Z,4.72
2018-03-08T07:05:57.334Z,4.72
2018-03-08T07:06:57.346Z,4.73
2018-03-08T07:07:57.265Z,4.80
2018-03-08T07:08:57.258Z,4.65
2018-03-08T07:09:57.237Z,4.72
2018-03-08T07:10:57.213Z,4.67
2018-03-08T07:11:57.196Z,4.72
2018-03-08T07:12:57.225Z,4.67
2018-03-08T07:13:57.176Z,4.69
2018-03-08T07:14:57.150Z,4.65
2018-03-08T07:15:57.138Z,4.67
2018-03-08T07:16:57.303Z,4.67
2018-03-08T07:17:58.174Z,4.75
2018-03-08T07:18:57.269Z,4.77
2018-03-08T07:19:57.172Z,4.69
2018-03-08T07:20:57.180Z,4.67
2018-03-08T07:21:57.557Z,4.69
2018-03-08T07:22:57.197Z,4.70
2018-03-08T07:23:57.027Z,4.66
2018-03-08T07:24:57.167Z,4.75
2018-03-08T07:25:56.959Z,4.67
2018-03-08T07:26:56.960Z,4.67
2018-03-08T07:27:56.928Z,4.67
2018-03-08T07:28:56.933Z,4.65
2018-03-08T07:29:56.905Z,4.70
2018-03-08T07:30:56.889Z,4.73
2018-03-08T07:31:56.877Z,4.69
2018-03-08T07:32:56.848Z,4.69
2018-03-08T07:33:56.863Z,4.66
2018-03-08T07:34:56.815Z,4.75
2018-03-08T07:35:56.796Z,4.78
2018-03-08T07:36:56.786Z,4.75
2018-03-08T07:37:56.765Z,4.85
2018-03-08T07:38:56.755Z,4.85
2018-03-08T07:39:56.733Z,4.85
2018-03-08T07:40:56.711Z,4.86
2018-03-08T07:41:56.701Z,4.94
2018-03-08T07:42:56.680Z,4.92
2018-03-08T07:43:56.705Z,4.94
2018-03-08T07:44:56.639Z,4.99
2018-03-08T07:45:56.627Z,5.03
2018-03-08T07:46:56.614Z,4.99
2018-03-08T07:47:56.592Z,5.00
2018-03-08T07:48:56.597Z,5.03
2018-03-08T07:49:56.636Z,5.06
2018-03-08T07:50:56.555Z,5.00
2018-03-08T07:51:56.525Z,5.00
2018-03-08T07:52:56.521Z,5.10
2018-03-08T07:53:56.493Z,5.15
2018-03-08T07:54:56.486Z,5.15
2018-03-08T07:55:56.489Z,5.20
2018-03-08T07:56:56.449Z,5.15
2018-03-08T07:57:56.439Z,5.13
2018-03-08T07:58:56.420Z,5.20
2018-03-08T07:59:56.397Z,5.15
2018-03-08T08:00:56.457Z,5.28
2018-03-08T08:01:56.360Z,5.21
2018-03-08T08:02:56.349Z,5.18
2018-03-08T08:03:56.328Z,5.40
2018-03-08T08:04:56.318Z,5.42
2018-03-08T08:05:56.305Z,5.43
2018-03-08T08:06:56.293Z,5.42
2018-03-08T08:07:56.265Z,5.38
2018-03-08T08:08:56.247Z,5.48
2018-03-08T08:09:56.226Z,5.48
2018-03-08T08:10:56.246Z,5.54
2018-03-08T08:11:56.200Z,5.58
2018-03-08T08:12:56.185Z,5.58
2018-03-08T08:13:56.180Z,5.61
2018-03-08T08:14:56.159Z,5.65
2018-03-08T08:15:56.234Z,5.67
2018-03-08T08:16:56.125Z,5.58
2018-03-08T08:17:56.100Z,5.72
2018-03-08T08:18:56.083Z,5.76
2018-03-08T08:19:56.081Z,5.74
2018-03-08T08:20:56.095Z,5.71
2018-03-08T08:21:56.044Z,5.79
2018-03-08T08:22:56.029Z,5.74
2018-03-08T08:23:56.013Z,5.81
2018-03-08T08:24:55.992Z,5.71
2018-03-08T08:25:55.980Z,5.71
2018-03-08T08:26:56.022Z,5.74
2018-03-08T08:27:55.947Z,5.75
2018-03-08T08:28:55.930Z,5.72
2018-03-08T08:29:55.907Z,5.71
2018-03-08T08:30:55.894Z,5.74
2018-03-08T08:31:55.881Z,5.79
2018-03-08T08:32:55.900Z,5.71
2018-03-08T08:33:55.867Z,5.71
2018-03-08T08:34:55.835Z,5.79
2018-03-08T08:35:55.822Z,5.79
2018-03-08T08:36:55.815Z,5.82
2018-03-08T08:37:55.794Z,5.71
2018-03-08T08:38:55.805Z,5.86
2018-03-08T08:39:55.752Z,5.74
2018-03-08T08:40:55.740Z,5.76
2018-03-08T08:41:55.719Z,5.81
2018-03-08T08:42:55.716Z,5.82
2018-03-08T08:43:55.761Z,5.79
2018-03-08T08:44:55.672Z,5.86
2018-03-08T08:45:55.667Z,5.93
2018-03-08T08:46:55.653Z,5.90
2018-03-08T08:47:55.626Z,5.91
2018-03-08T08:48:55.612Z,5.94
2018-03-08T08:49:55.624Z,6.01
2018-03-08T08:50:55.583Z,5.97
2018-03-08T08:51:55.565Z,6.04
2018-03-08T08:52:55.547Z,6.01
2018-03-08T08:53:55.535Z,6.06
2018-03-08T08:54:55.524Z,6.04
2018-03-08T08:55:55.514Z,6.08
2018-03-08T08:56:55.488Z,6.08
2018-03-08T08:57:55.466Z,6.11
2018-03-08T08:58:55.448Z,6.17
2018-03-08T08:59:55.442Z,6.21
2018-03-08T09:00:55.460Z,6.30
2018-03-08T09:01:55.401Z,6.28
2018-03-08T09:02:55.393Z,6.31
2018-03-08T09:03:55.382Z,6.36
2018-03-08T09:04:55.367Z,6.43
2018-03-08T09:05:55.380Z,6.34
2018-03-08T09:06:55.367Z,6.43
2018-03-08T09:07:55.314Z,6.36
2018-03-08T09:08:55.297Z,6.48
2018-03-08T09:09:55.286Z,6.51
2018-03-08T09:10:55.347Z,6.48
2018-03-08T09:11:55.251Z,6.43
2018-03-08T09:12:55.237Z,6.52
2018-03-08T09:13:55.231Z,6.59
2018-03-08T09:14:55.215Z,6.64
2018-03-08T09:15:55.206Z,6.73
2018-03-08T09:16:55.245Z,6.71
2018-03-08T09:17:55.171Z,6.71
2018-03-08T09:18:55.198Z,6.74
2018-03-08T09:19:55.132Z,6.84
2018-03-08T09:20:55.119Z,6.94
2018-03-08T09:21:55.113Z,6.89
2018-03-08T09:22:55.130Z,6.91
2018-03-08T09:23:55.078Z,7.05
2018-03-08T09:24:55.071Z,6.94
2018-03-08T09:25:55.051Z,7.06
2018-03-08T09:26:55.045Z,6.92
2018-03-08T09:27:55.096Z,6.99
2018-03-08T09:28:54.995Z,7.06
2018-03-08T09:29:54.987Z,6.98
2018-03-08T09:30:54.967Z,6.92
2018-03-08T09:31:54.975Z,6.89
2018-03-08T09:32:54.949Z,6.89
2018-03-08T09:33:55.017Z,6.88
2018-03-08T09:34:54.918Z,6.91
2018-03-08T09:35:54.899Z,6.95
2018-03-08T09:36:54.892Z,6.94
2018-03-08T09:37:54.877Z,6.99
2018-03-08T09:38:54.915Z,6.94
2018-03-08T09:39:54.853Z,6.91
2018-03-08T09:40:54.833Z,6.94
2018-03-08T09:42:15.217Z,7.03
2018-03-08T09:59:32.410Z,7.74
2018-03-08T10:00:32.377Z,7.80
2018-03-08T10:01:32.347Z,7.77
2018-03-08T10:02:32.350Z,7.90
2018-03-08T10:03:32.352Z,7.85
2018-03-08T10:04:32.315Z,7.80
2018-03-08T10:05:32.374Z,7.79
2018-03-08T10:06:32.277Z,7.82
2018-03-08T10:07:32.486Z,7.72
2018-03-08T10:08:32.294Z,7.85
2018-03-08T10:09:32.245Z,7.82
2018-03-08T10:10:32.228Z,7.71
2018-03-08T10:11:32.204Z,7.72
2018-03-08T10:12:32.205Z,7.80
2018-03-08T10:13:32.242Z,7.83
2018-03-08T10:14:32.177Z,7.89
2018-03-08T10:15:32.151Z,7.87
2018-03-08T10:16:32.140Z,7.90
2018-03-08T10:17:32.124Z,8.05
2018-03-08T10:18:32.129Z,8.10
2018-03-08T10:19:32.129Z,8.10
2018-03-08T10:20:32.097Z,8.26
2018-03-08T10:21:44.964Z,8.28
2018-03-08T10:22:32.066Z,8.30
2018-03-08T10:23:32.049Z,8.29
2018-03-08T10:24:32.050Z,8.34
2018-03-08T10:25:32.026Z,8.45
2018-03-08T10:26:32.013Z,8.45
2018-03-08T10:27:32.057Z,8.30
2018-03-08T10:28:31.990Z,8.29
2018-03-08T10:29:32.157Z,8.25
2018-03-08T10:30:31.959Z,8.22
2018-03-08T10:31:31.945Z,8.29
2018-03-08T10:32:32.574Z,8.25
2018-03-08T10:33:31.984Z,8.30
2018-03-08T10:34:31.916Z,8.48
2018-03-08T10:35:31.894Z,8.56
2018-03-08T10:36:32.104Z,8.55
2018-03-08T10:37:31.925Z,8.50
2018-03-08T10:38:31.892Z,8.47
2018-03-08T10:39:31.843Z,8.53
2018-03-08T10:43:31.850Z,8.59
2018-03-08T10:44:31.781Z,8.62
2018-03-08T10:45:31.763Z,8.70
2018-03-08T10:46:31.755Z,8.65
2018-03-08T10:47:31.752Z,8.62
2018-03-08T10:48:32.432Z,8.68
2018-03-08T10:49:31.722Z,8.68
2018-03-08T10:50:31.740Z,8.65
2018-03-08T10:51:31.684Z,8.68
2018-03-08T10:52:32.437Z,8.61
2018-03-08T10:53:32.298Z,8.79
2018-03-08T10:54:32.479Z,8.73
2018-03-08T10:55:33.457Z,8.80
2018-03-08T10:56:31.628Z,8.96
2018-03-08T10:57:31.631Z,8.98
2018-03-08T10:58:32.351Z,8.98
2018-03-08T10:59:31.616Z,9.02
2018-03-08T11:00:31.681Z,9.08
2018-03-08T11:01:32.888Z,9.02
2018-03-08T11:02:31.870Z,9.10
2018-03-08T11:03:31.644Z,9.02
2018-03-08T11:04:31.610Z,8.99
2018-03-08T11:05:31.685Z,9.02
2018-03-08T11:06:31.600Z,9.11
2018-03-08T11:07:31.649Z,9.15
2018-03-08T11:08:31.504Z,9.35
2018-03-08T11:09:31.471Z,9.43
2018-03-08T11:10:31.506Z,9.53
2018-03-08T11:11:31.740Z,9.60
2018-03-08T11:12:31.422Z,9.68
2018-03-08T11:13:31.413Z,9.71
2018-03-08T11:14:31.413Z,9.76
2018-03-08T11:15:31.396Z,9.81
2018-03-08T11:16:31.466Z,9.83
2018-03-08T11:17:31.372Z,9.76
2018-03-08T11:18:31.365Z,9.69
2018-03-08T11:19:31.338Z,9.61
2018-03-08T11:20:31.329Z,9.58
2018-03-08T11:21:31.336Z,9.47
2018-03-08T11:22:31.313Z,9.47
2018-03-08T11:23:31.954Z,9.35
2018-03-08T11:26:49.132Z,9.23
2018-03-08T11:27:49.057Z,9.23
2018-03-08T11:28:49.034Z,9.26
2018-03-08T11:29:49.054Z,9.36
2018-03-08T11:30:49.130Z,9.36
2018-03-08T11:31:49.109Z,9.32
2018-03-08T11:32:49.181Z,9.36
2018-03-08T11:33:48.987Z,9.32
2018-03-08T11:34:48.971Z,9.43
2018-03-08T11:35:48.960Z,9.48
2018-03-08T11:36:48.954Z,9.66
2018-03-08T11:39:34.098Z,9.83
2018-03-08T11:40:32.798Z,9.86
2018-03-08T11:41:32.794Z,9.87
2018-03-08T11:42:32.781Z,9.81
2018-03-08T11:43:32.765Z,9.86
2018-03-08T11:44:32.926Z,9.78
2018-03-08T11:45:32.738Z,9.78
2018-03-08T11:46:32.728Z,9.68
2018-03-08T11:47:34.338Z,9.57
2018-03-08T11:48:33.842Z,9.46
2018-03-08T11:49:34.660Z,9.53
2018-03-08T11:50:33.677Z,9.38
2018-03-08T11:51:32.680Z,9.31
2018-03-08T11:52:32.653Z,9.24
2018-03-08T11:53:33.706Z,9.20
2018-03-08T11:54:32.943Z,9.23
2018-03-08T11:55:32.620Z,9.11
2018-03-08T11:56:32.641Z,9.02
2018-03-08T11:57:32.587Z,8.95
2018-03-08T11:58:32.581Z,8.99
2018-03-08T11:59:32.602Z,8.94
2018-03-08T12:00:43.166Z,9.01
2018-03-08T12:01:33.159Z,8.94
2018-03-08T12:02:33.015Z,9.02
2018-03-08T12:03:35.252Z,9.02
2018-03-08T12:04:32.639Z,8.96
2018-03-08T12:05:32.587Z,8.98
2018-03-08T12:06:34.197Z,8.89
2018-03-08T12:07:32.718Z,8.89
2018-03-08T12:08:33.164Z,8.86
2018-03-08T12:09:33.179Z,8.84
2018-03-08T12:10:34.064Z,8.89
2018-03-08T12:11:32.405Z,8.92
2018-03-08T12:12:32.397Z,8.89
2018-03-08T12:13:32.385Z,8.80
2018-03-08T12:14:32.375Z,8.80
2018-03-08T12:15:32.430Z,8.77
2018-03-08T12:16:32.331Z,8.81
2018-03-08T12:17:32.331Z,8.79
2018-03-08T12:18:37.164Z,8.74
2018-03-08T12:19:33.176Z,8.77
2018-03-08T12:20:32.496Z,8.79
2018-03-08T12:21:32.296Z,8.76
2018-03-08T12:22:32.402Z,8.76
2018-03-08T12:23:32.251Z,8.73
2018-03-08T12:39:04.422Z,9.17
2018-03-08T12:50:06.558Z,9.56
2018-03-08T12:51:05.940Z,9.51
2018-03-08T12:52:06.045Z,9.47
2018-03-08T12:53:05.937Z,9.47
2018-03-08T12:54:05.928Z,9.47
2018-03-08T12:55:06.182Z,9.54
2018-03-08T12:56:05.881Z,9.53
2018-03-08T12:57:05.858Z,9.43
2018-03-08T12:58:05.848Z,9.48
2018-03-08T12:59:05.833Z,9.47
2018-03-08T13:00:05.843Z,9.46
2018-03-08T13:01:05.798Z,9.50
2018-03-08T13:02:05.813Z,9.57
2018-03-08T13:03:06.549Z,9.56
2018-03-08T13:04:06.005Z,9.54
2018-03-08T13:05:05.800Z,9.66
2018-03-08T13:06:05.741Z,9.69
2018-03-08T13:07:05.736Z,9.71
2018-03-08T13:08:05.710Z,9.69
2018-03-08T13:09:05.715Z,9.76
2018-03-08T13:10:05.695Z,9.79
2018-03-08T13:11:05.675Z,9.87
2018-03-08T13:12:05.659Z,9.87
2018-03-08T13:13:05.686Z,9.87
2018-03-08T13:14:05.642Z,9.78
2018-03-08T13:15:05.626Z,9.79
2018-03-08T13:16:05.638Z,9.79
2018-03-08T13:17:05.596Z,9.81
2018-03-08T13:18:05.586Z,9.78
2018-03-08T13:19:05.583Z,9.76
2018-03-08T13:20:05.562Z,9.75
2018-03-08T13:21:05.579Z,9.78
2018-03-08T13:22:05.540Z,9.68
2018-03-08T13:23:05.534Z,9.65
2018-03-08T13:24:05.519Z,9.60
2018-03-08T13:25:05.504Z,9.64
2018-03-08T13:26:05.557Z,9.66
2018-03-08T13:27:05.471Z,9.64
2018-03-08T13:28:05.465Z,9.56
2018-03-08T13:29:05.468Z,9.57
2018-03-08T13:30:05.440Z,9.56
2018-03-08T13:31:05.421Z,9.61
2018-03-08T13:32:05.463Z,9.53
2018-03-08T13:33:05.394Z,9.43
2018-03-08T13:34:05.377Z,9.40
2018-03-08T13:35:05.374Z,9.20
2018-03-08T13:36:05.357Z,9.18
2018-03-08T13:37:05.344Z,9.13
2018-03-08T13:38:05.330Z,9.02
2018-03-08T13:39:05.328Z,9.17
2018-03-08T13:40:05.313Z,9.10
2018-03-08T13:41:05.283Z,9.02
2018-03-08T13:42:05.301Z,9.11
2018-03-08T13:43:05.289Z,9.17
2018-03-08T13:44:05.248Z,9.14
2018-03-08T13:45:05.246Z,9.17
2018-03-08T13:46:05.234Z,9.13
2018-03-08T13:47:05.223Z,9.17
2018-03-08T13:48:05.277Z,9.15
2018-03-08T13:49:05.185Z,9.10
2018-03-08T13:50:05.163Z,9.04
2018-03-08T13:51:05.158Z,9.05
2018-03-08T13:52:05.151Z,9.11
2018-03-08T13:53:05.129Z,9.14
2018-03-08T13:54:05.171Z,9.13
2018-03-08T13:55:05.341Z,9.10
2018-03-08T13:56:05.095Z,9.10
2018-03-08T13:57:05.080Z,9.10
2018-03-08T13:58:05.068Z,9.05
2018-03-08T13:59:05.052Z,9.05
2018-03-08T14:00:05.040Z,9.08
2018-03-08T14:01:05.023Z,9.02
2018-03-08T14:02:05.017Z,9.02
2018-03-08T14:03:04.988Z,9.08
2018-03-08T14:04:04.980Z,9.11
2018-03-08T14:05:04.984Z,9.02
2018-03-08T14:06:04.959Z,8.99
2018-03-08T14:07:04.941Z,9.05
2018-03-08T14:08:04.926Z,9.05
2018-03-08T14:09:04.914Z,9.01
2018-03-08T14:10:04.931Z,8.86
2018-03-08T14:11:04.950Z,8.92
2018-03-08T14:12:04.883Z,8.87
2018-03-08T14:13:04.869Z,8.86
2018-03-08T14:14:04.839Z,8.74
2018-03-08T14:15:04.829Z,8.83
2018-03-08T14:16:04.817Z,8.79
2018-03-08T14:17:04.833Z,8.71
2018-03-08T14:18:04.782Z,8.70
2018-03-08T14:19:04.775Z,8.62
2018-03-08T14:20:04.770Z,8.53
2018-03-08T14:21:04.760Z,8.59
2018-03-08T14:22:04.789Z,8.62
2018-03-08T14:23:04.709Z,8.53
2018-03-08T14:24:04.745Z,8.47
2018-03-08T14:25:04.951Z,8.43
2018-03-08T14:26:04.680Z,8.45
2018-03-08T14:27:04.669Z,8.45
2018-03-08T14:28:04.700Z,8.36
2018-03-08T14:29:04.628Z,8.37
2018-03-08T14:30:04.610Z,8.36
2018-03-08T14:31:04.600Z,8.36
2018-03-08T14:32:04.593Z,8.36
2018-03-08T14:33:04.568Z,8.28
2018-03-08T14:34:04.607Z,8.28
2018-03-08T14:35:04.557Z,8.33
2018-03-08T14:36:04.529Z,8.20
2018-03-08T14:37:04.525Z,8.12
2018-03-08T14:38:04.536Z,8.02
2018-03-08T14:39:04.492Z,8.02
2018-03-08T14:40:04.480Z,7.97
2018-03-08T14:41:04.456Z,7.90
2018-03-08T14:42:04.492Z,7.86
2018-03-08T14:43:04.439Z,7.72
2018-03-08T14:44:04.421Z,7.79
2018-03-08T14:45:04.446Z,7.68
2018-03-08T14:46:04.388Z,7.63
2018-03-08T14:47:04.382Z,7.57
2018-03-08T14:48:04.811Z,7.43
2018-03-08T14:49:04.340Z,7.42
2018-03-08T14:50:04.320Z,7.42
2018-03-08T14:51:04.304Z,7.31
2018-03-08T14:52:04.298Z,7.24
2018-03-08T14:53:04.283Z,7.23
2018-03-08T14:54:04.293Z,7.16
2018-03-08T14:55:04.249Z,7.05
2018-03-08T14:56:04.264Z,7.06
2018-03-08T14:57:04.225Z,7.03
2018-03-08T14:58:04.201Z,7.07
2018-03-08T14:59:04.222Z,6.92
2018-03-08T15:00:04.175Z,6.91
2018-03-08T15:01:04.211Z,6.91
2018-03-08T15:02:04.151Z,6.94
2018-03-08T15:03:04.129Z,6.91
2018-03-08T15:04:04.109Z,6.91
2018-03-08T15:05:04.093Z,6.91
2018-03-08T15:06:04.076Z,6.91
2018-03-08T15:07:04.065Z,6.92
2018-03-08T15:08:04.101Z,6.85
2018-03-08T15:09:04.081Z,6.85